Los Angeles, California
Traffic Map
Current Weather Conditions
Los Angeles, California
Clear
Clear
68°
Feels Like: 68°
Wind Chill: 68° Ceiling: Unl
Heat Index: 68° Visibility: 10mi
Dew Point: 62° Wind: 5mph
Humidity: 81% Direction: ° ()
Pressure: 29.89in Gusts: 0mph
Raw Report DataKCQT 270347Z AUTO VRB04KT 10SM CLR 20/17 A2989 RMK AO2 SLP120 T02000167
Traffic Incident Summary
Active as of:
Severity:
Category:
InformationThere was an issue retrieving the traffic information for this location. Please try a different location or try again shortly.
Advertisements
Track Severe Weather on mobile